Time;durP1;ratioP1;P1;durP2;ratioP2;P2;SDS_P1;SDS_P2;PMS_P1;PMS_P2;Temp;Humidity;BMP_temperature;BMP_pressure;BME280_temperature;BME280_humidity;BME280_pressure;Samples;Min_cycle;Max_cycle;Signal;HPM_P1;HPM_P2
2021/11/05 00:00:11;;;;;;;;;;;;;;;;;;344505;28;985;-76
2021/11/05 00:00:28;;;;;;;;;;;;;;;;;;344513;28;942;-75
2021/11/05 00:00:39;;;;;;;;;;;;;;;;;;344524;28;838;-75
2021/11/05 00:00:50;;;;;;;;;;;;;;;;;;344463;28;827;-74
2021/11/05 00:01:07;;;;;;;;;;;;;;;;;;344857;28;803;-75
2021/11/05 00:01:28;;;;;;;;;;;;;;;;;;344484;28;942;-75
2021/11/05 00:01:39;;;;;;;;;;;;;;;;;;344507;28;878;-75
2021/11/05 00:01:54;;;;;;;;;;;;;;;;;;344499;28;1375;-75
2021/11/05 00:02:07;;;;;;;;;;;;;;;;;;341799;29;1442;-75
2021/11/05 00:02:19;;;;;;;;;;;;;;;;;;341881;29;856;-75
2021/11/05 00:02:31;;;;;;;;;;;;;;;;;;341844;29;866;-76
2021/11/05 00:02:42;;;;;;;;;;;;;;;;;;341863;29;796;-75
2021/11/05 00:03:03;;;;;;;;;;;;;;;;;;341836;29;799;-75
2021/11/05 00:03:20;;;;;;;;;;;;;;;;;;343160;28;871;-74
2021/11/05 00:03:31;;;;;;;;;;;;;;;;;;343236;28;965;-74
2021/11/05 00:03:41;;;;;;;;;;;;;;;;;;342863;28;1013;-75
2021/11/05 00:03:51;;;;;;;;;;;;;;;;;;344575;28;1001;-75
2021/11/05 00:04:02;;;;;;;;;;;;;;;;;;345928;28;811;-75
2021/11/05 00:04:12;;;;;;;;;;;;;;;;;;347356;28;798;-75
2021/11/05 00:04:23;;;;;;;;;;;;;;;;;;345800;28;1464;-75
2021/11/05 00:04:33;;;;;;;;;;;;;;;;;;345924;28;775;-75
2021/11/05 00:04:44;;;;;;;;;;;;;;;;;;345916;28;905;-75
2021/11/05 00:04:54;;;;;;;;;;;;;;;;;;345864;28;910;-75
2021/11/05 00:05:04;;;;;;;;;;;;;;;;;;345902;28;1036;-75
2021/11/05 00:05:24;;;;;;;;;;;;;;;;;;345762;28;834;-75
2021/11/05 00:05:40;;;;;;;;;;;;;;;;;;345940;28;835;-75
2021/11/05 00:05:52;;;;;;;;;;;;;;;;;;345861;28;934;-74
2021/11/05 00:06:02;;;;;;;;;;;;;;;;;;345846;28;893;-75
2021/11/05 00:06:19;;;;;;;;;;;;;;;;;;345778;28;917;-75
2021/11/05 00:06:35;;;;;;;;;;;;;;;;;;345848;28;838;-74
2021/11/05 00:06:45;;;;;;;;;;;;;;;;;;344611;28;889;-73
2021/11/05 00:06:56;;;;;;;;;;;;;;;;;;344498;28;815;-74
2021/11/05 00:07:07;;;;;;;;;;;;;;;;;;344537;28;776;-75
2021/11/05 00:07:17;;;;;;;;;;;;;;;;;;344344;28;1369;-75
2021/11/05 00:07:33;;;;;;;;;;;;;;;;;;344351;28;1257;-74
2021/11/05 00:07:43;;;;;;;;;;;;;;;;;;344602;28;897;-75
2021/11/05 00:08:41;;;;;;;;;;;;;;;;;;339727;29;799;-75
2021/11/05 00:08:51;;;;;;;;;;;;;;;;;;340496;29;875;-76
2021/11/05 00:09:02;;;;;;;;;;;;;;;;;;340498;29;783;-75
2021/11/05 00:09:12;;;;;;;;;;;;;;;;;;340866;29;823;-76
2021/11/05 00:09:22;;;;;;;;;;;;;;;;;;340444;29;1005;-76
2021/11/05 00:09:33;;;;;;;;;;;;;;;;;;340509;29;922;-75
2021/11/05 00:09:43;;;;;;;;;;;;;;;;;;340418;29;807;-76
2021/11/05 00:09:54;;;;;;;;;;;;;;;;;;340446;29;494;-76
2021/11/05 00:10:31;;;;;;;;;;;;;;;;;;340471;29;875;-74
2021/11/05 00:10:42;;;;;;;;;;;;;;;;;;340509;29;973;-74
2021/11/05 00:10:52;;;;;;;;;;;;;;;;;;340479;29;914;-74
2021/11/05 00:11:03;;;;;;;;;;;;;;;;;;340476;29;1156;-75
2021/11/05 00:11:13;;;;;;;;;;;;;;;;;;340192;29;1910;-75
2021/11/05 00:11:24;;;;;;;;;;;;;;;;;;341724;29;835;-75
2021/11/05 00:11:35;;;;;;;;;;;;;;;;;;339109;29;1540;-75
2021/11/05 00:11:45;;;;;;;;;;;;;;;;;;340515;29;937;-75
2021/11/05 00:11:56;;;;;;;;;;;;;;;;;;340417;29;910;-75
2021/11/05 00:12:07;;;;;;;;;;;;;;;;;;340545;29;901;-75
2021/11/05 00:12:17;;;;;;;;;;;;;;;;;;340470;29;764;-75
2021/11/05 00:12:33;;;;;;;;;;;;;;;;;;340526;29;1000;-75
2021/11/05 00:12:44;;;;;;;;;;;;;;;;;;340555;29;854;-75
2021/11/05 00:12:54;;;;;;;;;;;;;;;;;;340532;29;905;-75
2021/11/05 00:13:05;;;;;;;;;;;;;;;;;;340539;29;882;-75
2021/11/05 00:13:15;;;;;;;;;;;;;;;;;;340385;29;1004;-75
2021/11/05 00:13:26;;;;;;;;;;;;;;;;;;340331;29;1350;-75
2021/11/05 00:13:36;;;;;;;;;;;;;;;;;;341695;29;1323;-75
2021/11/05 00:13:46;;;;;;;;;;;;;;;;;;341851;29;775;-75
2021/11/05 00:13:57;;;;;;;;;;;;;;;;;;341805;29;886;-76
2021/11/05 00:14:07;;;;;;;;;;;;;;;;;;341794;29;795;-76
2021/11/05 00:14:43;;;;;;;;;;;;;;;;;;341827;29;964;-75
2021/11/05 00:14:54;;;;;;;;;;;;;;;;;;341825;29;870;-74
2021/11/05 00:15:04;;;;;;;;;;;;;;;;;;339071;29;1341;-75
2021/11/05 00:15:15;;;;;;;;;;;;;;;;;;339001;29;1142;-74
2021/11/05 00:15:32;;;;;;;;;;;;;;;;;;339596;29;1291;-75
2021/11/05 00:15:42;;;;;;;;;;;;;;;;;;340499;29;835;-75
2021/11/05 00:15:52;;;;;;;;;;;;;;;;;;340484;29;977;-76
2021/11/05 00:16:03;;;;;;;;;;;;;;;;;;340513;29;791;-75
2021/11/05 00:16:13;;;;;;;;;;;;;;;;;;340428;29;929;-75
2021/11/05 00:16:24;;;;;;;;;;;;;;;;;;340262;29;974;-75
2021/11/05 00:16:35;;;;;;;;;;;;;;;;;;340455;29;815;-75
2021/11/05 00:16:45;;;;;;;;;;;;;;;;;;340509;29;835;-75
2021/11/05 00:16:56;;;;;;;;;;;;;;;;;;340478;29;946;-76
2021/11/05 00:17:07;;;;;;;;;;;;;;;;;;340638;29;807;-75
2021/11/05 00:17:17;;;;;;;;;;;;;;;;;;341690;29;1005;-76
2021/11/05 00:17:28;;;;;;;;;;;;;;;;;;341785;29;827;-75
2021/11/05 00:17:39;;;;;;;;;;;;;;;;;;340534;29;890;-75
2021/11/05 00:17:50;;;;;;;;;;;;;;;;;;340469;29;870;-75
2021/11/05 00:18:01;;;;;;;;;;;;;;;;;;340522;29;839;-75
2021/11/05 00:18:12;;;;;;;;;;;;;;;;;;339096;29;1253;-75
2021/11/05 00:18:22;;;;;;;;;;;;;;;;;;339168;29;1050;-75
2021/11/05 00:18:33;;;;;;;;;;;;;;;;;;339084;29;795;-75
2021/11/05 00:18:44;;;;;;;;;;;;;;;;;;337794;29;1160;-75
2021/11/05 00:18:54;;;;;;;;;;;;;;;;;;337906;29;906;-75
2021/11/05 00:19:05;;;;;;;;;;;;;;;;;;337826;29;879;-75
2021/11/05 00:19:24;;;;;;;;;;;;;;;;;;340785;28;831;-75
2021/11/05 00:19:41;;;;;;;;;;;;;;;;;;344498;28;885;-75
2021/11/05 00:19:51;;;;;;;;;;;;;;;;;;344500;28;810;-75
2021/11/05 00:20:02;;;;;;;;;;;;;;;;;;344282;28;1013;-76
2021/11/05 00:21:06;;;;;;;;;;;;;;;;;;345910;28;850;-75
2021/11/05 00:21:23;;;;;;;;;;;;;;;;;;345856;28;818;-75
2021/11/05 00:21:52;;;;;;;;;;;;;;;;;;345496;28;953;-75
2021/11/05 00:22:03;;;;;;;;;;;;;;;;;;344491;28;838;-75
2021/11/05 00:22:13;;;;;;;;;;;;;;;;;;344495;28;787;-76
2021/11/05 00:22:24;;;;;;;;;;;;;;;;;;343092;28;1316;-75
2021/11/05 00:22:35;;;;;;;;;;;;;;;;;;343637;28;842;-76
2021/11/05 00:23:13;;;;;;;;;;;;;;;;;;344423;28;826;-75
2021/11/05 00:23:25;;;;;;;;;;;;;;;;;;344590;28;826;-76
2021/11/05 00:24:07;;;;;;;;;;;;;;;;;;344539;28;850;-75
2021/11/05 00:24:17;;;;;;;;;;;;;;;;;;344692;28;783;-75
2021/11/05 00:24:44;;;;;;;;;;;;;;;;;;343326;28;1495;-75
2021/11/05 00:24:54;;;;;;;;;;;;;;;;;;343124;28;1245;-75
2021/11/05 00:25:08;;;;;;;;;;;;;;;;;;343227;28;815;-75
2021/11/05 00:25:20;;;;;;;;;;;;;;;;;;341545;29;1262;-76
2021/11/05 00:25:30;;;;;;;;;;;;;;;;;;340393;29;1358;-75
2021/11/05 00:25:40;;;;;;;;;;;;;;;;;;341855;29;1009;-76
2021/11/05 00:25:51;;;;;;;;;;;;;;;;;;341747;29;1170;-74
2021/11/05 00:26:01;;;;;;;;;;;;;;;;;;340537;29;772;-74
2021/11/05 00:26:12;;;;;;;;;;;;;;;;;;340581;29;819;-75
2021/11/05 00:26:22;;;;;;;;;;;;;;;;;;340483;29;835;-75
2021/11/05 00:26:33;;;;;;;;;;;;;;;;;;340380;29;1029;-75
2021/11/05 00:26:43;;;;;;;;;;;;;;;;;;341667;29;1714;-76
2021/11/05 00:26:54;;;;;;;;;;;;;;;;;;340506;29;1107;-76
2021/11/05 00:27:04;;;;;;;;;;;;;;;;;;340486;29;830;-75
2021/11/05 00:27:27;;;;;;;;;;;;;;;;;;340436;29;1036;-75
2021/11/05 00:27:42;;;;;;;;;;;;;;;;;;340632;28;1025;-76
2021/11/05 00:27:56;;;;;;;;;;;;;;;;;;343234;28;787;-75
2021/11/05 00:28:13;;;;;;;;;;;;;;;;;;343197;28;862;-76
2021/11/05 00:28:23;;;;;;;;;;;;;;;;;;343267;28;869;-75
2021/11/05 00:28:33;;;;;;;;;;;;;;;;;;343190;28;959;-75
2021/11/05 00:28:44;;;;;;;;;;;;;;;;;;344446;28;1023;-75
2021/11/05 00:28:54;;;;;;;;;;;;;;;;;;345843;28;798;-75
2021/11/05 00:29:05;;;;;;;;;;;;;;;;;;345851;28;1000;-74
2021/11/05 00:29:15;;;;;;;;;;;;;;;;;;345750;28;969;-75
2021/11/05 00:29:26;;;;;;;;;;;;;;;;;;344424;28;1351;-76
2021/11/05 00:29:36;;;;;;;;;;;;;;;;;;343009;28;1185;-75
2021/11/05 00:29:47;;;;;;;;;;;;;;;;;;343484;28;938;-76
2021/11/05 00:29:57;;;;;;;;;;;;;;;;;;344561;28;827;-76
2021/11/05 00:30:09;;;;;;;;;;;;;;;;;;344548;28;826;-75
2021/11/05 00:30:20;;;;;;;;;;;;;;;;;;344485;28;1045;-75
2021/11/05 00:30:30;;;;;;;;;;;;;;;;;;344496;28;942;-74
2021/11/05 00:30:41;;;;;;;;;;;;;;;;;;344462;28;976;-75
2021/11/05 00:30:51;;;;;;;;;;;;;;;;;;344490;28;985;-76
2021/11/05 00:31:02;;;;;;;;;;;;;;;;;;344402;28;1420;-75
2021/11/05 00:31:12;;;;;;;;;;;;;;;;;;343155;28;1005;-75
2021/11/05 00:31:22;;;;;;;;;;;;;;;;;;342991;28;1899;-75
2021/11/05 00:31:33;;;;;;;;;;;;;;;;;;343919;28;878;-75
2021/11/05 00:32:09;;;;;;;;;;;;;;;;;;344518;28;1117;-76
2021/11/05 00:32:20;;;;;;;;;;;;;;;;;;344486;28;973;-74
2021/11/05 00:32:30;;;;;;;;;;;;;;;;;;343058;28;1581;-75
2021/11/05 00:32:41;;;;;;;;;;;;;;;;;;343187;28;1009;-75
2021/11/05 00:33:29;;;;;;;;;;;;;;;;;;344513;28;933;-75
2021/11/05 00:33:39;;;;;;;;;;;;;;;;;;344524;28;969;-75
2021/11/05 00:33:50;;;;;;;;;;;;;;;;;;344166;28;912;-75
2021/11/05 00:34:00;;;;;;;;;;;;;;;;;;344485;28;830;-75
2021/11/05 00:34:11;;;;;;;;;;;;;;;;;;345775;28;795;-75
2021/11/05 00:34:21;;;;;;;;;;;;;;;;;;345820;28;885;-75
2021/11/05 00:34:32;;;;;;;;;;;;;;;;;;347233;28;909;-75
2021/11/05 00:34:42;;;;;;;;;;;;;;;;;;345620;28;1066;-75
2021/11/05 00:34:52;;;;;;;;;;;;;;;;;;345894;28;818;-75
2021/11/05 00:35:03;;;;;;;;;;;;;;;;;;344435;28;826;-75
2021/11/05 00:35:14;;;;;;;;;;;;;;;;;;342775;28;973;-75
2021/11/05 00:35:25;;;;;;;;;;;;;;;;;;343188;28;870;-75
2021/11/05 00:36:01;;;;;;;;;;;;;;;;;;341862;29;827;-76
2021/11/05 00:36:14;;;;;;;;;;;;;;;;;;341829;29;899;-75
2021/11/05 00:36:24;;;;;;;;;;;;;;;;;;341691;29;957;-75
2021/11/05 00:36:34;;;;;;;;;;;;;;;;;;341970;28;906;-74
2021/11/05 00:36:45;;;;;;;;;;;;;;;;;;343111;28;917;-75
2021/11/05 00:36:55;;;;;;;;;;;;;;;;;;341898;28;1157;-76
2021/11/05 00:37:32;;;;;;;;;;;;;;;;;;342603;28;799;-75
2021/11/05 00:38:24;;;;;;;;;;;;;;;;;;343032;28;814;-75
2021/11/05 00:39:10;;;;;;;;;;;;;;;;;;344424;28;1210;-74
2021/11/05 00:39:20;;;;;;;;;;;;;;;;;;344394;28;818;-74
2021/11/05 00:39:30;;;;;;;;;;;;;;;;;;343044;28;1399;-75
2021/11/05 00:39:41;;;;;;;;;;;;;;;;;;343154;28;784;-75
2021/11/05 00:39:51;;;;;;;;;;;;;;;;;;343116;28;1016;-75
2021/11/05 00:40:54;;;;;;;;;;;;;;;;;;341871;29;815;-75
2021/11/05 00:41:19;;;;;;;;;;;;;;;;;;342169;28;942;-75
2021/11/05 00:41:30;;;;;;;;;;;;;;;;;;344154;28;925;-75
2021/11/05 00:41:40;;;;;;;;;;;;;;;;;;344473;28;973;-75
2021/11/05 00:41:50;;;;;;;;;;;;;;;;;;344453;28;849;-75
2021/11/05 00:42:01;;;;;;;;;;;;;;;;;;346476;28;850;-75
2021/11/05 00:42:11;;;;;;;;;;;;;;;;;;345850;28;910;-75
2021/11/05 00:42:22;;;;;;;;;;;;;;;;;;344450;28;1444;-76
2021/11/05 00:42:32;;;;;;;;;;;;;;;;;;344452;28;993;-75
2021/11/05 00:42:43;;;;;;;;;;;;;;;;;;343111;28;783;-75
2021/11/05 00:42:54;;;;;;;;;;;;;;;;;;343000;28;1432;-75
2021/11/05 00:43:04;;;;;;;;;;;;;;;;;;342843;28;1239;-75
2021/11/05 00:43:14;;;;;;;;;;;;;;;;;;343088;28;818;-75
2021/11/05 00:43:25;;;;;;;;;;;;;;;;;;341856;29;969;-75
2021/11/05 00:43:35;;;;;;;;;;;;;;;;;;343177;28;772;-74
2021/11/05 00:43:46;;;;;;;;;;;;;;;;;;340322;29;1306;-75
2021/11/05 00:44:22;;;;;;;;;;;;;;;;;;341792;29;921;-75
2021/11/05 00:44:32;;;;;;;;;;;;;;;;;;341828;29;944;-75
2021/11/05 00:44:43;;;;;;;;;;;;;;;;;;340509;29;961;-74
2021/11/05 00:44:53;;;;;;;;;;;;;;;;;;341520;29;1501;-74
2021/11/05 00:45:04;;;;;;;;;;;;;;;;;;344186;28;1288;-75
2021/11/05 00:45:14;;;;;;;;;;;;;;;;;;342917;28;1594;-75
2021/11/05 00:45:25;;;;;;;;;;;;;;;;;;343203;28;981;-74
2021/11/05 00:45:35;;;;;;;;;;;;;;;;;;343192;28;928;-75
2021/11/05 00:45:45;;;;;;;;;;;;;;;;;;343167;28;846;-75
2021/11/05 00:45:56;;;;;;;;;;;;;;;;;;342019;28;834;-75
2021/11/05 00:46:06;;;;;;;;;;;;;;;;;;341867;29;846;-74
2021/11/05 00:46:17;;;;;;;;;;;;;;;;;;341872;29;815;-75
2021/11/05 00:46:27;;;;;;;;;;;;;;;;;;341859;29;823;-75
2021/11/05 00:46:37;;;;;;;;;;;;;;;;;;341827;29;870;-74
2021/11/05 00:46:48;;;;;;;;;;;;;;;;;;342305;28;1025;-75
2021/11/05 00:46:58;;;;;;;;;;;;;;;;;;344006;28;807;-74
2021/11/05 00:47:09;;;;;;;;;;;;;;;;;;346291;28;917;-75
2021/11/05 00:47:19;;;;;;;;;;;;;;;;;;347207;28;988;-75
2021/11/05 00:47:29;;;;;;;;;;;;;;;;;;347144;28;791;-74
2021/11/05 00:47:40;;;;;;;;;;;;;;;;;;345783;28;1427;-74
2021/11/05 00:47:51;;;;;;;;;;;;;;;;;;345852;28;1043;-75
2021/11/05 00:48:27;;;;;;;;;;;;;;;;;;345821;28;1044;-76
2021/11/05 00:48:38;;;;;;;;;;;;;;;;;;344454;28;1001;-76
2021/11/05 00:48:48;;;;;;;;;;;;;;;;;;344457;28;993;-75
2021/11/05 00:49:00;;;;;;;;;;;;;;;;;;344491;28;982;-75
2021/11/05 00:49:10;;;;;;;;;;;;;;;;;;344435;28;996;-75
2021/11/05 00:49:21;;;;;;;;;;;;;;;;;;344408;28;977;-75
2021/11/05 00:49:31;;;;;;;;;;;;;;;;;;344495;28;909;-76
2021/11/05 00:49:42;;;;;;;;;;;;;;;;;;344348;28;1350;-76
2021/11/05 00:49:52;;;;;;;;;;;;;;;;;;345828;28;902;-76
2021/11/05 00:50:03;;;;;;;;;;;;;;;;;;345852;28;849;-76
2021/11/05 00:50:40;;;;;;;;;;;;;;;;;;345849;28;780;-76
2021/11/05 00:50:50;;;;;;;;;;;;;;;;;;345955;28;850;-75
2021/11/05 00:51:00;;;;;;;;;;;;;;;;;;347212;28;982;-75
2021/11/05 00:51:11;;;;;;;;;;;;;;;;;;347178;28;1020;-76
2021/11/05 00:51:21;;;;;;;;;;;;;;;;;;347005;28;1886;-75
2021/11/05 00:51:31;;;;;;;;;;;;;;;;;;347226;28;786;-75
2021/11/05 00:51:42;;;;;;;;;;;;;;;;;;347273;28;909;-75
2021/11/05 00:51:52;;;;;;;;;;;;;;;;;;345753;28;893;-76
2021/11/05 00:52:03;;;;;;;;;;;;;;;;;;345729;28;814;-75
2021/11/05 00:52:13;;;;;;;;;;;;;;;;;;345702;28;1448;-74
2021/11/05 00:52:24;;;;;;;;;;;;;;;;;;345833;28;846;-75
2021/11/05 00:52:41;;;;;;;;;;;;;;;;;;345819;28;1063;-76
2021/11/05 00:52:51;;;;;;;;;;;;;;;;;;345805;28;925;-76
2021/11/05 00:53:02;;;;;;;;;;;;;;;;;;345786;28;953;-75
2021/11/05 00:53:12;;;;;;;;;;;;;;;;;;344334;28;1145;-75
2021/11/05 00:53:23;;;;;;;;;;;;;;;;;;343097;28;922;-75
2021/11/05 00:53:33;;;;;;;;;;;;;;;;;;343060;28;878;-76
2021/11/05 00:54:11;;;;;;;;;;;;;;;;;;343156;28;815;-75
2021/11/05 00:54:21;;;;;;;;;;;;;;;;;;343196;28;870;-75
2021/11/05 00:54:31;;;;;;;;;;;;;;;;;;343105;28;918;-76
2021/11/05 00:55:08;;;;;;;;;;;;;;;;;;344253;28;827;-75
2021/11/05 00:55:18;;;;;;;;;;;;;;;;;;345761;28;764;-75
2021/11/05 00:55:29;;;;;;;;;;;;;;;;;;345836;28;957;-74
2021/11/05 00:55:40;;;;;;;;;;;;;;;;;;346475;28;791;-75
2021/11/05 00:55:50;;;;;;;;;;;;;;;;;;347330;28;897;-75
2021/11/05 00:56:01;;;;;;;;;;;;;;;;;;347242;28;976;-75
2021/11/05 00:56:11;;;;;;;;;;;;;;;;;;347258;28;1020;-75
2021/11/05 00:56:22;;;;;;;;;;;;;;;;;;347143;28;1037;-75
2021/11/05 00:56:32;;;;;;;;;;;;;;;;;;347255;28;988;-75
2021/11/05 00:56:42;;;;;;;;;;;;;;;;;;347264;28;982;-74
2021/11/05 00:56:53;;;;;;;;;;;;;;;;;;347221;28;823;-75
2021/11/05 00:57:04;;;;;;;;;;;;;;;;;;345764;28;1079;-75
2021/11/05 00:57:14;;;;;;;;;;;;;;;;;;345663;28;858;-75
2021/11/05 00:57:27;;;;;;;;;;;;;;;;;;347171;28;806;-75
2021/11/05 00:57:43;;;;;;;;;;;;;;;;;;347150;28;969;-75
2021/11/05 00:57:53;;;;;;;;;;;;;;;;;;347171;28;921;-75
2021/11/05 00:58:15;;;;;;;;;;;;;;;;;;347169;28;842;-75
2021/11/05 00:58:57;;;;;;;;;;;;;;;;;;347238;28;909;-75
2021/11/05 00:59:07;;;;;;;;;;;;;;;;;;345517;28;923;-76
2021/11/05 00:59:18;;;;;;;;;;;;;;;;;;345744;28;823;-75
2021/11/05 00:59:28;;;;;;;;;;;;;;;;;;345882;28;961;-75
2021/11/05 00:59:39;;;;;;;;;;;;;;;;;;345882;28;810;-74
2021/11/05 00:59:50;;;;;;;;;;;;;;;;;;345872;28;822;-75
2021/11/05 01:00:26;;;;;;;;;;;;;;;;;;345790;28;984;-74
2021/11/05 01:00:37;;;;;;;;;;;;;;;;;;344341;28;1246;-75
2021/11/05 01:00:47;;;;;;;;;;;;;;;;;;344385;28;914;-75
2021/11/05 01:01:19;;;;;;;;;;;;;;;;;;343070;28;1283;-75
2021/11/05 01:01:31;;;;;;;;;;;;;;;;;;340423;29;906;-75
2021/11/05 01:01:42;;;;;;;;;;;;;;;;;;340303;29;903;-75
2021/11/05 01:01:52;;;;;;;;;;;;;;;;;;340383;29;1107;-75
2021/11/05 01:02:57;;;;;;;;;;;;;;;;;;342521;28;827;-75
2021/11/05 01:03:08;;;;;;;;;;;;;;;;;;343122;28;866;-76
2021/11/05 01:03:18;;;;;;;;;;;;;;;;;;342950;28;874;-75
2021/11/05 01:03:30;;;;;;;;;;;;;;;;;;343116;28;928;-76
2021/11/05 01:03:41;;;;;;;;;;;;;;;;;;343076;28;826;-76
2021/11/05 01:03:52;;;;;;;;;;;;;;;;;;343118;28;764;-76
2021/11/05 01:04:02;;;;;;;;;;;;;;;;;;343109;28;838;-76
2021/11/05 01:04:13;;;;;;;;;;;;;;;;;;341717;29;916;-76
2021/11/05 01:04:23;;;;;;;;;;;;;;;;;;341744;29;992;-75
2021/11/05 01:04:49;;;;;;;;;;;;;;;;;;341719;29;840;-76
2021/11/05 01:05:06;;;;;;;;;;;;;;;;;;341663;29;803;-75
2021/11/05 01:05:17;;;;;;;;;;;;;;;;;;341326;29;945;-75
2021/11/05 01:05:27;;;;;;;;;;;;;;;;;;340450;29;764;-76
2021/11/05 01:05:38;;;;;;;;;;;;;;;;;;340444;29;886;-75
2021/11/05 01:05:48;;;;;;;;;;;;;;;;;;340279;29;1272;-75
2021/11/05 01:05:59;;;;;;;;;;;;;;;;;;340412;29;1037;-76
2021/11/05 01:06:09;;;;;;;;;;;;;;;;;;341114;29;1005;-75
2021/11/05 01:06:19;;;;;;;;;;;;;;;;;;341765;29;922;-75
2021/11/05 01:06:33;;;;;;;;;;;;;;;;;;340445;29;800;-75
2021/11/05 01:06:43;;;;;;;;;;;;;;;;;;340407;29;787;-75
2021/11/05 01:06:54;;;;;;;;;;;;;;;;;;340360;29;1290;-75
2021/11/05 01:07:06;;;;;;;;;;;;;;;;;;340312;29;889;-75
2021/11/05 01:07:16;;;;;;;;;;;;;;;;;;340169;29;791;-75
2021/11/05 01:07:26;;;;;;;;;;;;;;;;;;341266;29;990;-75
2021/11/05 01:08:04;;;;;;;;;;;;;;;;;;341800;29;831;-75
2021/11/05 01:08:15;;;;;;;;;;;;;;;;;;341659;29;1476;-75
2021/11/05 01:08:26;;;;;;;;;;;;;;;;;;341619;29;1482;-75
2021/11/05 01:08:36;;;;;;;;;;;;;;;;;;340380;29;1076;-75
2021/11/05 01:08:46;;;;;;;;;;;;;;;;;;340510;29;930;-74
2021/11/05 01:08:57;;;;;;;;;;;;;;;;;;341712;29;930;-74
2021/11/05 01:09:08;;;;;;;;;;;;;;;;;;341759;29;858;-74
2021/11/05 01:09:19;;;;;;;;;;;;;;;;;;341609;29;827;-75
2021/11/05 01:09:29;;;;;;;;;;;;;;;;;;340422;29;1446;-76
2021/11/05 01:09:40;;;;;;;;;;;;;;;;;;340318;29;863;-75
2021/11/05 01:09:51;;;;;;;;;;;;;;;;;;340383;29;863;-75
2021/11/05 01:10:02;;;;;;;;;;;;;;;;;;339052;29;1377;-75
2021/11/05 01:10:12;;;;;;;;;;;;;;;;;;337807;29;959;-76
2021/11/05 01:10:23;;;;;;;;;;;;;;;;;;337781;29;1430;-75
2021/11/05 01:10:37;;;;;;;;;;;;;;;;;;338657;29;898;-76
2021/11/05 01:10:48;;;;;;;;;;;;;;;;;;339110;29;927;-76
2021/11/05 01:10:59;;;;;;;;;;;;;;;;;;339118;29;777;-75
2021/11/05 01:11:35;;;;;;;;;;;;;;;;;;340324;29;1430;-75
2021/11/05 01:11:45;;;;;;;;;;;;;;;;;;340242;29;796;-75
2021/11/05 01:11:56;;;;;;;;;;;;;;;;;;340395;29;903;-75
2021/11/05 01:12:07;;;;;;;;;;;;;;;;;;340820;29;882;-75
2021/11/05 01:12:19;;;;;;;;;;;;;;;;;;341610;29;986;-75
2021/11/05 01:12:29;;;;;;;;;;;;;;;;;;341649;29;1017;-74
2021/11/05 01:12:40;;;;;;;;;;;;;;;;;;341741;29;945;-75
2021/11/05 01:12:50;;;;;;;;;;;;;;;;;;341755;29;839;-76
2021/11/05 01:13:01;;;;;;;;;;;;;;;;;;341509;29;945;-75
2021/11/05 01:13:12;;;;;;;;;;;;;;;;;;341651;29;839;-76
2021/11/05 01:13:23;;;;;;;;;;;;;;;;;;341745;29;763;-76
2021/11/05 01:13:33;;;;;;;;;;;;;;;;;;341776;29;989;-76
2021/11/05 01:13:44;;;;;;;;;;;;;;;;;;342628;28;1433;-76
2021/11/05 01:13:54;;;;;;;;;;;;;;;;;;341612;29;1441;-76
2021/11/05 01:14:05;;;;;;;;;;;;;;;;;;341604;29;910;-75
2021/11/05 01:14:15;;;;;;;;;;;;;;;;;;341743;29;985;-76
2021/11/05 01:14:26;;;;;;;;;;;;;;;;;;341760;29;918;-76
2021/11/05 01:14:36;;;;;;;;;;;;;;;;;;341706;29;942;-76
2021/11/05 01:14:47;;;;;;;;;;;;;;;;;;341765;29;838;-75
2021/11/05 01:14:58;;;;;;;;;;;;;;;;;;341801;29;787;-75
2021/11/05 01:15:09;;;;;;;;;;;;;;;;;;341689;29;1016;-75
2021/11/05 01:15:20;;;;;;;;;;;;;;;;;;341656;29;827;-75
2021/11/05 01:15:31;;;;;;;;;;;;;;;;;;341711;29;826;-75
2021/11/05 01:15:42;;;;;;;;;;;;;;;;;;341749;29;1009;-75
2021/11/05 01:15:52;;;;;;;;;;;;;;;;;;342670;28;846;-76
2021/11/05 01:16:03;;;;;;;;;;;;;;;;;;343120;28;834;-75
2021/11/05 01:16:13;;;;;;;;;;;;;;;;;;341609;29;831;-76
2021/11/05 01:16:24;;;;;;;;;;;;;;;;;;341742;29;1092;-75
2021/11/05 01:16:34;;;;;;;;;;;;;;;;;;341744;29;986;-76
2021/11/05 01:16:50;;;;;;;;;;;;;;;;;;341772;29;945;-76
2021/11/05 01:17:01;;;;;;;;;;;;;;;;;;341767;29;930;-75
2021/11/05 01:17:11;;;;;;;;;;;;;;;;;;341605;29;985;-75
2021/11/05 01:17:22;;;;;;;;;;;;;;;;;;341556;29;985;-75
2021/11/05 01:17:34;;;;;;;;;;;;;;;;;;341653;29;957;-75
2021/11/05 01:17:44;;;;;;;;;;;;;;;;;;341733;29;1052;-76
2021/11/05 01:17:54;;;;;;;;;;;;;;;;;;341229;29;1168;-75
2021/11/05 01:18:05;;;;;;;;;;;;;;;;;;340456;29;1143;-75
2021/11/05 01:18:15;;;;;;;;;;;;;;;;;;341738;29;985;-75
2021/11/05 01:18:26;;;;;;;;;;;;;;;;;;341533;29;965;-75
2021/11/05 01:18:36;;;;;;;;;;;;;;;;;;341756;29;966;-75
2021/11/05 01:18:53;;;;;;;;;;;;;;;;;;341749;29;890;-75
2021/11/05 01:19:10;;;;;;;;;;;;;;;;;;340302;29;1296;-75
2021/11/05 01:19:20;;;;;;;;;;;;;;;;;;340232;29;1318;-75
2021/11/05 01:19:31;;;;;;;;;;;;;;;;;;340345;29;1277;-75
2021/11/05 01:19:41;;;;;;;;;;;;;;;;;;341629;29;1299;-75
2021/11/05 01:19:52;;;;;;;;;;;;;;;;;;341761;29;866;-75
2021/11/05 01:20:04;;;;;;;;;;;;;;;;;;341748;29;822;-75
2021/11/05 01:20:15;;;;;;;;;;;;;;;;;;341730;29;1024;-75
2021/11/05 01:20:26;;;;;;;;;;;;;;;;;;341642;29;1060;-75
2021/11/05 01:20:36;;;;;;;;;;;;;;;;;;341654;28;886;-75
2021/11/05 01:20:48;;;;;;;;;;;;;;;;;;341728;29;878;-75
2021/11/05 01:20:58;;;;;;;;;;;;;;;;;;341722;29;958;-75
2021/11/05 01:21:09;;;;;;;;;;;;;;;;;;342845;28;803;-75
2021/11/05 01:21:19;;;;;;;;;;;;;;;;;;341846;28;1001;-75
2021/11/05 01:21:30;;;;;;;;;;;;;;;;;;342821;28;823;-75
2021/11/05 01:21:40;;;;;;;;;;;;;;;;;;341640;29;1430;-75
2021/11/05 01:21:51;;;;;;;;;;;;;;;;;;341697;29;985;-75
2021/11/05 01:22:01;;;;;;;;;;;;;;;;;;341747;29;783;-75
2021/11/05 01:22:14;;;;;;;;;;;;;;;;;;341620;29;1426;-76
2021/11/05 01:22:31;;;;;;;;;;;;;;;;;;340179;29;1272;-75
2021/11/05 01:22:42;;;;;;;;;;;;;;;;;;340166;29;983;-75
2021/11/05 01:22:52;;;;;;;;;;;;;;;;;;340273;29;1048;-75
2021/11/05 01:23:03;;;;;;;;;;;;;;;;;;340400;29;998;-75
2021/11/05 01:23:13;;;;;;;;;;;;;;;;;;340233;29;1502;-75
2021/11/05 01:23:23;;;;;;;;;;;;;;;;;;339023;29;1367;-74
2021/11/05 01:23:34;;;;;;;;;;;;;;;;;;340070;29;1235;-75
2021/11/05 01:24:10;;;;;;;;;;;;;;;;;;340436;29;946;-76
2021/11/05 01:24:20;;;;;;;;;;;;;;;;;;340416;29;990;-75
2021/11/05 01:24:30;;;;;;;;;;;;;;;;;;341286;29;1289;-75
2021/11/05 01:24:41;;;;;;;;;;;;;;;;;;341676;29;1029;-76
2021/11/05 01:24:51;;;;;;;;;;;;;;;;;;340440;29;938;-75
2021/11/05 01:25:02;;;;;;;;;;;;;;;;;;338931;29;1737;-76
2021/11/05 01:25:14;;;;;;;;;;;;;;;;;;339010;29;1053;-75
2021/11/05 01:25:24;;;;;;;;;;;;;;;;;;339083;29;1037;-75
2021/11/05 01:25:34;;;;;;;;;;;;;;;;;;340182;29;948;-76
2021/11/05 01:25:45;;;;;;;;;;;;;;;;;;341597;29;1265;-76
2021/11/05 01:25:55;;;;;;;;;;;;;;;;;;340225;29;1014;-75
2021/11/05 01:26:06;;;;;;;;;;;;;;;;;;340340;29;918;-75
2021/11/05 01:26:16;;;;;;;;;;;;;;;;;;340408;29;907;-75
2021/11/05 01:26:26;;;;;;;;;;;;;;;;;;340382;29;953;-75
2021/11/05 01:26:37;;;;;;;;;;;;;;;;;;338871;29;1446;-75
2021/11/05 01:26:47;;;;;;;;;;;;;;;;;;339058;29;1069;-76
2021/11/05 01:26:58;;;;;;;;;;;;;;;;;;339029;29;852;-75
2021/11/05 01:27:08;;;;;;;;;;;;;;;;;;339074;29;1079;-75
2021/11/05 01:27:18;;;;;;;;;;;;;;;;;;338946;29;737;-75
2021/11/05 01:27:29;;;;;;;;;;;;;;;;;;338975;29;863;-75
2021/11/05 01:27:40;;;;;;;;;;;;;;;;;;339043;29;816;-75
2021/11/05 01:27:51;;;;;;;;;;;;;;;;;;339039;29;954;-74
2021/11/05 01:28:01;;;;;;;;;;;;;;;;;;340253;29;1279;-75
2021/11/05 01:28:12;;;;;;;;;;;;;;;;;;340193;29;975;-75
2021/11/05 01:28:22;;;;;;;;;;;;;;;;;;340410;29;903;-75
2021/11/05 01:28:32;;;;;;;;;;;;;;;;;;339135;29;919;-74
2021/11/05 01:28:43;;;;;;;;;;;;;;;;;;339625;29;986;-75
2021/11/05 01:28:53;;;;;;;;;;;;;;;;;;340423;29;1033;-75
2021/11/05 01:29:03;;;;;;;;;;;;;;;;;;340389;29;851;-75
2021/11/05 01:29:14;;;;;;;;;;;;;;;;;;340073;29;1278;-74
2021/11/05 01:29:24;;;;;;;;;;;;;;;;;;340432;29;843;-75
2021/11/05 01:29:35;;;;;;;;;;;;;;;;;;340359;29;859;-75
2021/11/05 01:29:47;;;;;;;;;;;;;;;;;;340456;29;839;-73
2021/11/05 01:29:59;;;;;;;;;;;;;;;;;;339114;29;803;-75
2021/11/05 01:30:35;;;;;;;;;;;;;;;;;;340372;29;838;-75
2021/11/05 01:30:49;;;;;;;;;;;;;;;;;;340533;29;1041;-73
2021/11/05 01:31:05;;;;;;;;;;;;;;;;;;341719;29;1021;-76
2021/11/05 01:31:18;;;;;;;;;;;;;;;;;;341471;29;1471;-75
2021/11/05 01:31:28;;;;;;;;;;;;;;;;;;341699;29;925;-75
2021/11/05 01:31:38;;;;;;;;;;;;;;;;;;340314;29;1477;-75
2021/11/05 01:31:49;;;;;;;;;;;;;;;;;;340418;29;795;-75
2021/11/05 01:32:00;;;;;;;;;;;;;;;;;;341791;29;804;-75
2021/11/05 01:32:11;;;;;;;;;;;;;;;;;;341742;29;859;-75
2021/11/05 01:32:27;;;;;;;;;;;;;;;;;;341565;29;957;-75
2021/11/05 01:32:53;;;;;;;;;;;;;;;;;;341571;29;978;-75
2021/11/05 01:33:19;;;;;;;;;;;;;;;;;;341717;29;910;-75
2021/11/05 01:33:30;;;;;;;;;;;;;;;;;;341733;29;811;-75
2021/11/05 01:33:40;;;;;;;;;;;;;;;;;;342824;28;1031;-76
2021/11/05 01:33:51;;;;;;;;;;;;;;;;;;341710;29;918;-75
2021/11/05 01:34:02;;;;;;;;;;;;;;;;;;341669;29;926;-75
2021/11/05 01:34:12;;;;;;;;;;;;;;;;;;340349;29;1367;-75
2021/11/05 01:34:23;;;;;;;;;;;;;;;;;;340171;29;1041;-75
2021/11/05 01:34:33;;;;;;;;;;;;;;;;;;340316;29;843;-75
2021/11/05 01:34:43;;;;;;;;;;;;;;;;;;340366;29;1037;-74
2021/11/05 01:34:54;;;;;;;;;;;;;;;;;;340431;29;875;-75